sensor_id;sensor_type;location;lat;lon;timestamp;P1;P2;P0
69205;PMS7003;56319;48.920;2.332;2024-02-23T11:08:12;1.00;1.00;0.00
69205;PMS7003;56319;48.920;2.332;2024-02-23T11:10:42;0.00;0.00;0.00
69205;PMS7003;56319;48.920;2.332;2024-02-23T11:13:15;0.50;0.50;0.00
69205;PMS7003;56319;48.920;2.332;2024-02-23T11:15:44;1.00;0.00;0.00
69205;PMS7003;56319;48.920;2.332;2024-02-23T11:21:02;1.00;0.00;0.00
69205;PMS7003;56319;48.920;2.332;2024-02-23T11:26:18;1.00;0.00;0.00
69205;PMS7003;56319;48.920;2.332;2024-02-23T11:28:47;1.75;1.00;1.00
69205;PMS7003;56319;48.920;2.332;2024-02-23T11:31:21;0.00;0.00;0.00
69205;PMS7003;56319;48.920;2.332;2024-02-23T11:33:49;0.00;0.00;0.00
69205;PMS7003;56319;48.920;2.332;2024-02-23T11:39:03;0.50;0.00;0.00
69205;PMS7003;56319;48.920;2.332;2024-02-23T11:41:29;0.00;0.00;0.00
69205;PMS7003;56319;48.920;2.332;2024-02-23T11:43:55;1.25;0.00;0.00
69205;PMS7003;56319;48.920;2.332;2024-02-23T11:46:22;0.00;0.00;0.00
69205;PMS7003;56319;48.920;2.332;2024-02-23T11:48:50;1.75;0.00;0.00
69205;PMS7003;56319;48.920;2.332;2024-02-23T11:51:20;0.00;0.00;0.00
69205;PMS7003;56319;48.920;2.332;2024-02-23T11:53:47;0.25;0.25;0.00
69205;PMS7003;56319;48.920;2.332;2024-02-23T11:56:13;0.00;0.00;0.00
69205;PMS7003;56319;48.920;2.332;2024-02-23T11:58:40;0.00;0.00;0.00
69205;PMS7003;56319;48.920;2.332;2024-02-23T12:01:06;0.00;0.00;0.00
69205;PMS7003;56319;48.920;2.332;2024-02-23T12:03:32;1.00;0.00;0.00
69205;PMS7003;56319;48.920;2.332;2024-02-23T12:05:59;0.00;0.00;0.00
69205;PMS7003;56319;48.920;2.332;2024-02-23T12:08:30;0.00;0.00;0.00
69205;PMS7003;56319;48.920;2.332;2024-02-23T12:11:03;1.50;0.00;0.00
69205;PMS7003;56319;48.920;2.332;2024-02-23T12:13:30;0.00;0.00;0.00
69205;PMS7003;56319;48.920;2.332;2024-02-23T12:15:56;2.50;0.00;0.00
69205;PMS7003;56319;48.920;2.332;2024-02-23T12:18:23;1.00;0.00;0.00
69205;PMS7003;56319;48.920;2.332;2024-02-23T12:20:51;1.00;0.75;0.75
69205;PMS7003;56319;48.920;2.332;2024-02-23T12:23:24;1.25;0.00;0.00
69205;PMS7003;56319;48.920;2.332;2024-02-23T12:25:54;0.00;0.00;0.00
69205;PMS7003;56319;48.920;2.332;2024-02-23T12:28:22;1.00;1.00;0.00
69205;PMS7003;56319;48.920;2.332;2024-02-23T12:33:35;1.00;0.00;0.00
69205;PMS7003;56319;48.920;2.332;2024-02-23T12:36:05;0.00;0.00;0.00
69205;PMS7003;56319;48.920;2.332;2024-02-23T12:38:35;1.00;1.00;0.75
69205;PMS7003;56319;48.920;2.332;2024-02-23T12:41:05;1.00;0.00;0.00
69205;PMS7003;56319;48.920;2.332;2024-02-23T12:43:43;0.00;0.00;0.00
69205;PMS7003;56319;48.920;2.332;2024-02-23T12:46:09;0.00;0.00;0.00
69205;PMS7003;56319;48.920;2.332;2024-02-23T12:48:39;0.00;0.00;0.00
69205;PMS7003;56319;48.920;2.332;2024-02-23T12:51:05;0.00;0.00;0.00
69205;PMS7003;56319;48.920;2.332;2024-02-23T12:53:37;0.00;0.00;0.00
69205;PMS7003;56319;48.920;2.332;2024-02-23T12:56:06;2.00;0.00;0.00
69205;PMS7003;56319;48.920;2.332;2024-02-23T12:58:41;0.25;0.00;0.00
69205;PMS7003;56319;48.920;2.332;2024-02-23T13:01:11;1.25;0.50;0.25
69205;PMS7003;56319;48.920;2.332;2024-02-23T13:03:38;1.25;0.75;0.00
69205;PMS7003;56319;48.920;2.332;2024-02-23T13:06:06;0.00;0.00;0.00
69205;PMS7003;56319;48.920;2.332;2024-02-23T13:08:33;0.00;0.00;0.00
69205;PMS7003;56319;48.920;2.332;2024-02-23T13:11:00;0.00;0.00;0.00
69205;PMS7003;56319;48.920;2.332;2024-02-23T13:13:29;0.00;0.00;0.00
69205;PMS7003;56319;48.920;2.332;2024-02-23T13:15:55;0.00;0.00;0.00
69205;PMS7003;56319;48.920;2.332;2024-02-23T13:18:22;0.75;0.00;0.00
69205;PMS7003;56319;48.920;2.332;2024-02-23T13:20:51;1.25;1.00;0.25
69205;PMS7003;56319;48.920;2.332;2024-02-23T13:23:17;0.00;0.00;0.00
69205;PMS7003;56319;48.920;2.332;2024-02-23T13:25:43;0.25;0.25;0.00
69205;PMS7003;56319;48.920;2.332;2024-02-23T13:28:16;0.75;0.00;0.00
69205;PMS7003;56319;48.920;2.332;2024-02-23T13:30:44;0.25;0.25;0.25
69205;PMS7003;56319;48.920;2.332;2024-02-23T13:33:11;1.00;0.00;0.00
69205;PMS7003;56319;48.920;2.332;2024-02-23T13:35:37;1.25;0.00;0.00
69205;PMS7003;56319;48.920;2.332;2024-02-23T13:38:04;0.00;0.00;0.00
69205;PMS7003;56319;48.920;2.332;2024-02-23T13:40:34;1.00;1.00;1.00
69205;PMS7003;56319;48.920;2.332;2024-02-23T13:43:05;1.00;0.00;0.00
69205;PMS7003;56319;48.920;2.332;2024-02-23T13:45:47;1.00;1.00;0.00
69205;PMS7003;56319;48.920;2.332;2024-02-23T13:48:17;0.00;0.00;0.00
69205;PMS7003;56319;48.920;2.332;2024-02-23T13:50:47;1.50;0.50;0.50
69205;PMS7003;56319;48.920;2.332;2024-02-23T13:53:14;0.00;0.00;0.00
69205;PMS7003;56319;48.920;2.332;2024-02-23T13:55:40;0.50;0.50;0.50
69205;PMS7003;56319;48.920;2.332;2024-02-23T13:58:11;1.00;0.00;0.00
69205;PMS7003;56319;48.920;2.332;2024-02-23T14:00:37;0.00;0.00;0.00
69205;PMS7003;56319;48.920;2.332;2024-02-23T14:03:03;1.00;0.00;0.00
69205;PMS7003;56319;48.920;2.332;2024-02-23T14:05:30;0.00;0.00;0.00
69205;PMS7003;56319;48.920;2.332;2024-02-23T14:07:56;1.00;1.00;1.00
69205;PMS7003;56319;48.920;2.332;2024-02-23T14:10:27;0.00;0.00;0.00
69205;PMS7003;56319;48.920;2.332;2024-02-23T14:12:54;1.00;0.00;0.00
69205;PMS7003;56319;48.920;2.332;2024-02-23T14:15:20;0.00;0.00;0.00
69205;PMS7003;56319;48.920;2.332;2024-02-23T14:17:46;2.00;0.00;0.00
69205;PMS7003;56319;48.920;2.332;2024-02-23T14:20:15;0.00;0.00;0.00
69205;PMS7003;56319;48.920;2.332;2024-02-23T14:22:46;1.00;1.00;0.00
69205;PMS7003;56319;48.920;2.332;2024-02-23T14:25:12;1.75;0.00;0.00
69205;PMS7003;56319;48.920;2.332;2024-02-23T14:27:37;0.00;0.00;0.00
69205;PMS7003;56319;48.920;2.332;2024-02-23T14:30:03;0.00;0.00;0.00
69205;PMS7003;56319;48.920;2.332;2024-02-23T14:32:29;0.00;0.00;0.00
69205;PMS7003;56319;48.920;2.332;2024-02-23T14:34:56;0.00;0.00;0.00
69205;PMS7003;56319;48.920;2.332;2024-02-23T14:37:40;0.25;0.25;0.00
69205;PMS7003;56319;48.920;2.332;2024-02-23T14:40:09;3.00;1.00;1.00
69205;PMS7003;56319;48.920;2.332;2024-02-23T14:42:37;1.00;0.00;0.00
69205;PMS7003;56319;48.920;2.332;2024-02-23T14:45:04;0.00;0.00;0.00
69205;PMS7003;56319;48.920;2.332;2024-02-23T14:47:31;0.00;0.00;0.00
69205;PMS7003;56319;48.920;2.332;2024-02-23T14:49:57;0.75;0.00;0.00
69205;PMS7003;56319;48.920;2.332;2024-02-23T14:52:22;0.25;0.00;0.00
69205;PMS7003;56319;48.920;2.332;2024-02-23T14:54:51;0.00;0.00;0.00
69205;PMS7003;56319;48.920;2.332;2024-02-23T14:57:19;0.75;0.25;0.00
69205;PMS7003;56319;48.920;2.332;2024-02-23T15:00:06;0.50;0.00;0.00
69205;PMS7003;56319;48.920;2.332;2024-02-23T15:02:34;0.00;0.00;0.00
69205;PMS7003;56319;48.920;2.332;2024-02-23T15:05:00;1.00;1.00;0.75
69205;PMS7003;56319;48.920;2.332;2024-02-23T15:07:31;0.50;0.50;0.00
69205;PMS7003;56319;48.920;2.332;2024-02-23T15:09:58;0.00;0.00;0.00
69205;PMS7003;56319;48.920;2.332;2024-02-23T15:12:26;1.00;1.00;0.25
69205;PMS7003;56319;48.920;2.332;2024-02-23T15:14:56;2.00;0.50;0.00
69205;PMS7003;56319;48.920;2.332;2024-02-23T15:17:24;0.00;0.00;0.00
69205;PMS7003;56319;48.920;2.332;2024-02-23T15:19:50;0.00;0.00;0.00
69205;PMS7003;56319;48.920;2.332;2024-02-23T15:22:15;0.00;0.00;0.00
69205;PMS7003;56319;48.920;2.332;2024-02-23T15:24:43;0.00;0.00;0.00
69205;PMS7003;56319;48.920;2.332;2024-02-23T15:27:16;1.25;0.00;0.00
69205;PMS7003;56319;48.920;2.332;2024-02-23T15:29:42;0.25;0.25;0.25
69205;PMS7003;56319;48.920;2.332;2024-02-23T15:32:09;0.00;0.00;0.00
69205;PMS7003;56319;48.920;2.332;2024-02-23T15:34:36;1.25;0.00;0.00
69205;PMS7003;56319;48.920;2.332;2024-02-23T15:37:02;0.75;0.75;0.00
69205;PMS7003;56319;48.920;2.332;2024-02-23T15:39:28;0.00;0.00;0.00
69205;PMS7003;56319;48.920;2.332;2024-02-23T15:41:55;0.00;0.00;0.00
69205;PMS7003;56319;48.920;2.332;2024-02-23T15:44:21;0.00;0.00;0.00
69205;PMS7003;56319;48.920;2.332;2024-02-23T15:46:47;0.50;0.00;0.00
69205;PMS7003;56319;48.920;2.332;2024-02-23T15:49:13;0.25;0.25;0.00
69205;PMS7003;56319;48.920;2.332;2024-02-23T15:51:43;0.00;0.00;0.00
69205;PMS7003;56319;48.920;2.332;2024-02-23T15:54:12;0.00;0.00;0.00
69205;PMS7003;56319;48.920;2.332;2024-02-23T15:56:41;0.00;0.00;0.00
69205;PMS7003;56319;48.920;2.332;2024-02-23T15:59:07;0.00;0.00;0.00
69205;PMS7003;56319;48.920;2.332;2024-02-23T16:01:34;0.00;0.00;0.00
69205;PMS7003;56319;48.920;2.332;2024-02-23T16:04:01;0.00;0.00;0.00
69205;PMS7003;56319;48.920;2.332;2024-02-23T16:06:27;0.00;0.00;0.00
69205;PMS7003;56319;48.920;2.332;2024-02-23T16:08:58;1.00;0.00;0.00
69205;PMS7003;56319;48.920;2.332;2024-02-23T16:11:25;0.50;0.00;0.00
69205;PMS7003;56319;48.920;2.332;2024-02-23T16:13:54;0.00;0.00;0.00
69205;PMS7003;56319;48.920;2.332;2024-02-23T16:16:19;0.50;0.00;0.00
69205;PMS7003;56319;48.920;2.332;2024-02-23T16:18:45;0.00;0.00;0.00
69205;PMS7003;56319;48.920;2.332;2024-02-23T16:21:11;1.50;0.00;0.00
69205;PMS7003;56319;48.920;2.332;2024-02-23T16:23:43;0.00;0.00;0.00
69205;PMS7003;56319;48.920;2.332;2024-02-23T16:26:09;0.00;0.00;0.00
69205;PMS7003;56319;48.920;2.332;2024-02-23T16:28:35;0.00;0.00;0.00
69205;PMS7003;56319;48.920;2.332;2024-02-23T16:31:01;0.00;0.00;0.00
69205;PMS7003;56319;48.920;2.332;2024-02-23T16:33:27;0.00;0.00;0.00
69205;PMS7003;56319;48.920;2.332;2024-02-23T16:35:54;0.00;0.00;0.00
69205;PMS7003;56319;48.920;2.332;2024-02-23T16:38:24;0.00;0.00;0.00
69205;PMS7003;56319;48.920;2.332;2024-02-23T16:40:50;0.00;0.00;0.00
69205;PMS7003;56319;48.920;2.332;2024-02-23T16:43:16;0.00;0.00;0.00
69205;PMS7003;56319;48.920;2.332;2024-02-23T16:45:42;0.25;0.25;0.00
69205;PMS7003;56319;48.920;2.332;2024-02-23T16:48:08;0.50;0.00;0.00
69205;PMS7003;56319;48.920;2.332;2024-02-23T16:50:35;0.00;0.00;0.00
69205;PMS7003;56319;48.920;2.332;2024-02-23T16:53:04;0.00;0.00;0.00
69205;PMS7003;56319;48.920;2.332;2024-02-23T16:55:31;0.00;0.00;0.00
69205;PMS7003;56319;48.920;2.332;2024-02-23T16:57:57;0.50;0.00;0.00
69205;PMS7003;56319;48.920;2.332;2024-02-23T17:00:23;0.75;0.00;0.00
69205;PMS7003;56319;48.920;2.332;2024-02-23T17:02:52;0.00;0.00;0.00
69205;PMS7003;56319;48.920;2.332;2024-02-23T17:05:20;0.00;0.00;0.00
69205;PMS7003;56319;48.920;2.332;2024-02-23T17:07:46;0.00;0.00;0.00
69205;PMS7003;56319;48.920;2.332;2024-02-23T17:10:12;0.00;0.00;0.00
69205;PMS7003;56319;48.920;2.332;2024-02-23T17:12:38;0.00;0.00;0.00
69205;PMS7003;56319;48.920;2.332;2024-02-23T17:15:10;0.00;0.00;0.00
69205;PMS7003;56319;48.920;2.332;2024-02-23T17:17:36;0.00;0.00;0.00
69205;PMS7003;56319;48.920;2.332;2024-02-23T17:20:01;0.00;0.00;0.00
69205;PMS7003;56319;48.920;2.332;2024-02-23T17:22:29;0.00;0.00;0.00
69205;PMS7003;56319;48.920;2.332;2024-02-23T17:24:55;0.75;0.00;0.00
69205;PMS7003;56319;48.920;2.332;2024-02-23T17:27:21;0.00;0.00;0.00
69205;PMS7003;56319;48.920;2.332;2024-02-23T17:29:47;0.00;0.00;0.00
69205;PMS7003;56319;48.920;2.332;2024-02-23T17:32:13;0.00;0.00;0.00
69205;PMS7003;56319;48.920;2.332;2024-02-23T17:34:39;0.25;0.25;0.00
69205;PMS7003;56319;48.920;2.332;2024-02-23T17:37:07;0.25;0.00;0.00
69205;PMS7003;56319;48.920;2.332;2024-02-23T17:39:34;0.00;0.00;0.00
69205;PMS7003;56319;48.920;2.332;2024-02-23T17:42:01;0.00;0.00;0.00
69205;PMS7003;56319;48.920;2.332;2024-02-23T17:44:29;0.50;0.00;0.00
69205;PMS7003;56319;48.920;2.332;2024-02-23T17:46:55;0.50;0.00;0.00
69205;PMS7003;56319;48.920;2.332;2024-02-23T17:49:23;0.00;0.00;0.00
69205;PMS7003;56319;48.920;2.332;2024-02-23T17:51:49;0.00;0.00;0.00
69205;PMS7003;56319;48.920;2.332;2024-02-23T17:54:15;0.00;0.00;0.00
69205;PMS7003;56319;48.920;2.332;2024-02-23T17:56:44;0.00;0.00;0.00
69205;PMS7003;56319;48.920;2.332;2024-02-23T17:59:15;0.00;0.00;0.00
69205;PMS7003;56319;48.920;2.332;2024-02-23T18:01:41;0.00;0.00;0.00
69205;PMS7003;56319;48.920;2.332;2024-02-23T18:04:08;0.00;0.00;0.00
69205;PMS7003;56319;48.920;2.332;2024-02-23T18:06:34;0.00;0.00;0.00
69205;PMS7003;56319;48.920;2.332;2024-02-23T18:09:03;0.00;0.00;0.00
69205;PMS7003;56319;48.920;2.332;2024-02-23T18:11:32;0.00;0.00;0.00
69205;PMS7003;56319;48.920;2.332;2024-02-23T18:14:01;0.00;0.00;0.00
69205;PMS7003;56319;48.920;2.332;2024-02-23T18:16:30;0.00;0.00;0.00
69205;PMS7003;56319;48.920;2.332;2024-02-23T18:18:56;0.00;0.00;0.00
69205;PMS7003;56319;48.920;2.332;2024-02-23T18:21:23;1.00;0.00;0.00
69205;PMS7003;56319;48.920;2.332;2024-02-23T18:23:52;0.00;0.00;0.00
69205;PMS7003;56319;48.920;2.332;2024-02-23T18:26:21;0.00;0.00;0.00
69205;PMS7003;56319;48.920;2.332;2024-02-23T18:28:46;0.00;0.00;0.00
69205;PMS7003;56319;48.920;2.332;2024-02-23T18:31:15;0.00;0.00;0.00
69205;PMS7003;56319;48.920;2.332;2024-02-23T18:33:48;0.00;0.00;0.00
69205;PMS7003;56319;48.920;2.332;2024-02-23T18:36:23;0.00;0.00;0.00
69205;PMS7003;56319;48.920;2.332;2024-02-23T18:38:52;0.00;0.00;0.00
69205;PMS7003;56319;48.920;2.332;2024-02-23T18:41:18;1.25;1.00;1.00
69205;PMS7003;56319;48.920;2.332;2024-02-23T18:43:46;0.00;0.00;0.00
69205;PMS7003;56319;48.920;2.332;2024-02-23T18:46:15;0.75;0.00;0.00
69205;PMS7003;56319;48.920;2.332;2024-02-23T18:48:41;0.00;0.00;0.00
69205;PMS7003;56319;48.920;2.332;2024-02-23T18:51:10;1.00;0.00;0.00
69205;PMS7003;56319;48.920;2.332;2024-02-23T18:53:36;2.00;1.00;1.00
69205;PMS7003;56319;48.920;2.332;2024-02-23T18:56:05;1.00;0.00;0.00
69205;PMS7003;56319;48.920;2.332;2024-02-23T18:58:33;0.00;0.00;0.00
69205;PMS7003;56319;48.920;2.332;2024-02-23T19:01:05;0.00;0.00;0.00
69205;PMS7003;56319;48.920;2.332;2024-02-23T19:03:35;0.00;0.00;0.00
69205;PMS7003;56319;48.920;2.332;2024-02-23T19:06:00;1.00;1.00;1.00
69205;PMS7003;56319;48.920;2.332;2024-02-23T19:08:29;0.00;0.00;0.00
69205;PMS7003;56319;48.920;2.332;2024-02-23T19:11:00;0.75;0.75;0.50
69205;PMS7003;56319;48.920;2.332;2024-02-23T19:13:26;1.75;0.75;0.00
69205;PMS7003;56319;48.920;2.332;2024-02-23T19:15:53;0.00;0.00;0.00
69205;PMS7003;56319;48.920;2.332;2024-02-23T19:18:21;1.00;0.00;0.00
69205;PMS7003;56319;48.920;2.332;2024-02-23T19:20:51;0.00;0.00;0.00
69205;PMS7003;56319;48.920;2.332;2024-02-23T19:23:20;0.00;0.00;0.00
69205;PMS7003;56319;48.920;2.332;2024-02-23T19:25:46;0.75;0.75;0.75
69205;PMS7003;56319;48.920;2.332;2024-02-23T19:28:12;0.00;0.00;0.00
69205;PMS7003;56319;48.920;2.332;2024-02-23T19:30:51;0.75;0.00;0.00
69205;PMS7003;56319;48.920;2.332;2024-02-23T19:33:29;0.00;0.00;0.00
69205;PMS7003;56319;48.920;2.332;2024-02-23T19:36:08;0.00;0.00;0.00
69205;PMS7003;56319;48.920;2.332;2024-02-23T19:38:41;1.00;1.00;1.00
69205;PMS7003;56319;48.920;2.332;2024-02-23T19:41:20;0.00;0.00;0.00
69205;PMS7003;56319;48.920;2.332;2024-02-23T19:43:49;0.00;0.00;0.00
69205;PMS7003;56319;48.920;2.332;2024-02-23T19:53:19;2.50;1.00;1.00
69205;PMS7003;56319;48.920;2.332;2024-02-23T19:56:26;1.25;1.25;1.00
69205;PMS7003;56319;48.920;2.332;2024-02-23T19:58:57;0.25;0.25;0.25
69205;PMS7003;56319;48.920;2.332;2024-02-23T20:02:24;0.75;0.75;0.00
69205;PMS7003;56319;48.920;2.332;2024-02-23T20:07:53;0.00;0.00;0.00
69205;PMS7003;56319;48.920;2.332;2024-02-23T20:10:21;1.00;1.00;1.00
69205;PMS7003;56319;48.920;2.332;2024-02-23T20:12:48;1.25;1.25;1.25
69205;PMS7003;56319;48.920;2.332;2024-02-23T20:15:15;3.00;1.00;1.00
69205;PMS7003;56319;48.920;2.332;2024-02-23T20:17:42;1.00;1.00;1.00
69205;PMS7003;56319;48.920;2.332;2024-02-23T20:20:19;1.00;1.00;1.00
69205;PMS7003;56319;48.920;2.332;2024-02-23T20:22:45;3.00;1.00;1.00
69205;PMS7003;56319;48.920;2.332;2024-02-23T20:25:11;2.00;2.00;2.00
69205;PMS7003;56319;48.920;2.332;2024-02-23T20:27:44;1.75;1.25;1.00
69205;PMS7003;56319;48.920;2.332;2024-02-23T20:30:10;1.25;1.25;1.00
69205;PMS7003;56319;48.920;2.332;2024-02-23T20:32:40;2.00;1.75;1.00
69205;PMS7003;56319;48.920;2.332;2024-02-23T20:35:05;2.00;1.50;1.25
69205;PMS7003;56319;48.920;2.332;2024-02-23T20:37:35;1.00;1.00;1.00
69205;PMS7003;56319;48.920;2.332;2024-02-23T20:40:23;1.50;1.00;1.00
69205;PMS7003;56319;48.920;2.332;2024-02-23T20:46:08;1.00;1.00;1.00
69205;PMS7003;56319;48.920;2.332;2024-02-23T20:49:20;2.50;2.00;1.25
69205;PMS7003;56319;48.920;2.332;2024-02-23T20:51:35;2.00;2.00;2.00
69205;PMS7003;56319;48.920;2.332;2024-02-23T20:54:19;2.00;2.00;1.50
69205;PMS7003;56319;48.920;2.332;2024-02-23T20:56:57;1.00;1.00;1.00
69205;PMS7003;56319;48.920;2.332;2024-02-23T21:02:46;5.00;1.25;1.00
69205;PMS7003;56319;48.920;2.332;2024-02-23T21:05:15;2.25;2.00;2.00
69205;PMS7003;56319;48.920;2.332;2024-02-23T21:08:30;3.00;2.00;1.25
69205;PMS7003;56319;48.920;2.332;2024-02-23T21:10:50;3.00;2.75;2.00
69205;PMS7003;56319;48.920;2.332;2024-02-23T21:13:19;1.25;1.00;1.00
69205;PMS7003;56319;48.920;2.332;2024-02-23T21:15:47;1.75;1.00;1.00
69205;PMS7003;56319;48.920;2.332;2024-02-23T21:18:17;2.00;1.00;1.00
69205;PMS7003;56319;48.920;2.332;2024-02-23T21:20:44;4.00;1.50;1.00
69205;PMS7003;56319;48.920;2.332;2024-02-23T21:23:23;1.00;1.00;1.00
69205;PMS7003;56319;48.920;2.332;2024-02-23T21:25:51;1.00;1.00;1.00
69205;PMS7003;56319;48.920;2.332;2024-02-23T21:28:17;1.00;1.00;1.00
69205;PMS7003;56319;48.920;2.332;2024-02-23T21:30:46;1.25;1.00;1.00
69205;PMS7003;56319;48.920;2.332;2024-02-23T21:33:19;1.50;1.50;1.50
69205;PMS7003;56319;48.920;2.332;2024-02-23T21:35:48;3.50;1.25;1.00
69205;PMS7003;56319;48.920;2.332;2024-02-23T21:38:20;2.00;2.00;1.25
69205;PMS7003;56319;48.920;2.332;2024-02-23T21:40:59;0.75;0.75;0.75
69205;PMS7003;56319;48.920;2.332;2024-02-23T21:43:25;5.00;2.00;1.00
69205;PMS7003;56319;48.920;2.332;2024-02-23T21:45:51;1.75;1.75;1.00
69205;PMS7003;56319;48.920;2.332;2024-02-23T21:48:19;1.00;1.00;0.50
69205;PMS7003;56319;48.920;2.332;2024-02-23T21:50:45;2.00;2.00;1.50
69205;PMS7003;56319;48.920;2.332;2024-02-23T21:53:11;0.50;0.25;0.25
69205;PMS7003;56319;48.920;2.332;2024-02-23T21:55:36;2.00;1.00;1.00
69205;PMS7003;56319;48.920;2.332;2024-02-23T21:58:08;3.00;1.00;1.00
69205;PMS7003;56319;48.920;2.332;2024-02-23T22:00:34;2.50;0.75;0.75
69205;PMS7003;56319;48.920;2.332;2024-02-23T22:03:00;0.75;0.75;0.75
69205;PMS7003;56319;48.920;2.332;2024-02-23T22:05:29;2.00;1.00;1.00
69205;PMS7003;56319;48.920;2.332;2024-02-23T22:07:58;1.00;1.00;1.00
69205;PMS7003;56319;48.920;2.332;2024-02-23T22:10:24;2.00;2.00;1.00
69205;PMS7003;56319;48.920;2.332;2024-02-23T22:12:50;1.00;1.00;1.00
69205;PMS7003;56319;48.920;2.332;2024-02-23T22:15:16;3.75;2.00;2.00
69205;PMS7003;56319;48.920;2.332;2024-02-23T22:17:42;1.00;1.00;1.00
69205;PMS7003;56319;48.920;2.332;2024-02-23T22:20:08;1.00;1.00;1.00
69205;PMS7003;56319;48.920;2.332;2024-02-23T22:22:34;1.00;1.00;1.00
69205;PMS7003;56319;48.920;2.332;2024-02-23T22:25:00;1.00;1.00;1.00
69205;PMS7003;56319;48.920;2.332;2024-02-23T22:27:28;1.75;1.75;1.25
69205;PMS7003;56319;48.920;2.332;2024-02-23T22:29:57;1.00;1.00;1.00
69205;PMS7003;56319;48.920;2.332;2024-02-23T22:32:38;1.50;1.50;1.00
69205;PMS7003;56319;48.920;2.332;2024-02-23T22:35:04;1.00;1.00;1.00
69205;PMS7003;56319;48.920;2.332;2024-02-23T22:37:31;1.00;1.00;1.00
69205;PMS7003;56319;48.920;2.332;2024-02-23T22:39:58;2.75;2.75;2.00
69205;PMS7003;56319;48.920;2.332;2024-02-23T22:42:24;3.50;1.00;1.00
69205;PMS7003;56319;48.920;2.332;2024-02-23T22:44:53;2.00;2.00;1.00
69205;PMS7003;56319;48.920;2.332;2024-02-23T22:47:20;1.00;1.00;1.00
69205;PMS7003;56319;48.920;2.332;2024-02-23T22:49:45;1.50;1.00;1.00
69205;PMS7003;56319;48.920;2.332;2024-02-23T22:52:14;0.00;0.00;0.00
69205;PMS7003;56319;48.920;2.332;2024-02-23T22:54:49;2.00;2.00;1.25
69205;PMS7003;56319;48.920;2.332;2024-02-23T22:57:15;0.00;0.00;0.00
69205;PMS7003;56319;48.920;2.332;2024-02-23T22:59:46;1.00;1.00;1.00
69205;PMS7003;56319;48.920;2.332;2024-02-23T23:02:12;2.00;2.00;1.00
69205;PMS7003;56319;48.920;2.332;2024-02-23T23:04:38;1.00;1.00;1.00
69205;PMS7003;56319;48.920;2.332;2024-02-23T23:07:07;1.50;1.50;1.50
69205;PMS7003;56319;48.920;2.332;2024-02-23T23:09:33;1.00;1.00;1.00
69205;PMS7003;56319;48.920;2.332;2024-02-23T23:12:01;1.00;1.00;1.00
69205;PMS7003;56319;48.920;2.332;2024-02-23T23:14:27;1.00;1.00;1.00
69205;PMS7003;56319;48.920;2.332;2024-02-23T23:16:53;1.00;1.00;1.00
69205;PMS7003;56319;48.920;2.332;2024-02-23T23:19:21;1.00;1.00;1.00
69205;PMS7003;56319;48.920;2.332;2024-02-23T23:21:48;1.00;1.00;1.00
69205;PMS7003;56319;48.920;2.332;2024-02-23T23:24:14;1.00;1.00;1.00
69205;PMS7003;56319;48.920;2.332;2024-02-23T23:26:40;1.00;1.00;1.00
69205;PMS7003;56319;48.920;2.332;2024-02-23T23:29:06;1.00;1.00;1.00
69205;PMS7003;56319;48.920;2.332;2024-02-23T23:31:32;0.50;0.50;0.00
69205;PMS7003;56319;48.920;2.332;2024-02-23T23:33:58;0.75;0.75;0.75
69205;PMS7003;56319;48.920;2.332;2024-02-23T23:36:25;0.50;0.25;0.00
69205;PMS7003;56319;48.920;2.332;2024-02-23T23:38:51;1.00;1.00;1.00
69205;PMS7003;56319;48.920;2.332;2024-02-23T23:41:16;1.25;1.25;0.75
69205;PMS7003;56319;48.920;2.332;2024-02-23T23:43:43;1.00;1.00;1.00
69205;PMS7003;56319;48.920;2.332;2024-02-23T23:46:13;2.00;2.00;1.00
69205;PMS7003;56319;48.920;2.332;2024-02-23T23:48:39;1.00;1.00;1.00
69205;PMS7003;56319;48.920;2.332;2024-02-23T23:51:04;0.75;0.75;0.00
69205;PMS7003;56319;48.920;2.332;2024-02-23T23:53:30;1.50;1.50;1.50
69205;PMS7003;56319;48.920;2.332;2024-02-23T23:55:59;1.00;1.00;1.00
69205;PMS7003;56319;48.920;2.332;2024-02-23T23:58:25;1.00;1.00;1.00
